Sheila Ann — C6FD2 — position and weather

sailwx.info

Track history (hours):
 
Tides and Currents Weather Stations Pressure Air Temp Water Temp Dewpoint Dewpoint Depression Visibility Wind Speed Wind Dir Waves Ship Positions

Sheila Ann

Last reported at 2018-Jul-09 11:57 UTC. Time now 2018-Jul-16 23:56 UTC.
Position N 30°25' W 118°44'.

Length 225 m; draft 8.4 m.

Type: Cargo ship. MMSI: 308717000.

Date/timePositionNaut miles runAvg speedWind from/ knotsBaromVisibWave heightAir tempDewpointWater temp
2018-Jul-09 11:57N 30°25' W 118°44'713.7
2018-Jul-09 11:28N 30°29' W 118°50'1214.0
2018-Jul-09 10:35N 30°38' W 118°60'113.8
2018-Jul-09 10:30N 30°39' W 119°01'714.2
2018-Jul-09 10:01N 30°44' W 119°07'714.0
2018-Jul-09 09:30N 30°49' W 119°13'1114.0
2018-Jul-09 08:41N 30°57' W 119°22'1713.9
2018-Jul-09 07:26N 31°10' W 119°35'614.0
2018-Jul-09 07:00N 31°15' W 119°39'714.1
2018-Jul-09 06:29N 31°20' W 119°45'713.9
2018-Jul-09 05:58N 31°26' W 119°50'613.6
2018-Jul-09 05:30N 31°31' W 119°55'713.5
2018-Jul-09 05:00N 31°36' W 119°59'714.0
2018-Jul-09 04:31N 31°42' W 120°04'713.9
2018-Jul-09 04:00N 31°47' W 120°09'713.8
2018-Jul-09 03:31N 31°53' W 120°14'714.2
2018-Jul-09 03:00N 31°58' W 120°20'713.9
2018-Jul-09 02:31N 32°04' W 120°25'714.1
2018-Jul-09 02:01N 32°09' W 120°30'714.2
2018-Jul-09 01:30N 32°15' W 120°35'714.0
2018-Jul-09 01:01N 32°20' W 120°40'6414.2
2018-Jul-08 20:28N 33°15' W 121°21'714.6
2018-Jul-08 20:00N 33°21' W 121°24'714.5
2018-Jul-08 19:30N 33°28' W 121°27'714.4
2018-Jul-08 19:01N 33°35' W 121°30'714.5
2018-Jul-08 18:30N 33°41' W 121°33'714.4
2018-Jul-08 18:01N 33°48' W 121°36'714.1
2018-Jul-08 17:30N 33°55' W 121°40'714.0
2018-Jul-08 17:00N 34°01' W 121°43'1014.0
2018-Jul-08 16:19N 34°10' W 121°47'813.9
2018-Jul-08 15:46N 34°17' W 121°51'813.6
2018-Jul-08 15:09N 34°25' W 121°54'313.6
2018-Jul-08 14:57N 34°27' W 121°56'613.5
2018-Jul-08 14:29N 34°33' W 121°58'613.3
2018-Jul-08 14:00N 34°39' W 122°01'813.1
2018-Jul-08 13:24N 34°47' W 122°05'3013.3
2018-Jul-08 11:10N 35°14' W 122°18'213.3
2018-Jul-08 11:00N 35°16' W 122°18'713.4
2018-Jul-08 10:29N 35°23' W 122°22'1013.4
2018-Jul-08 09:43N 35°32' W 122°26'513.6
2018-Jul-08 09:19N 35°38' W 122°27'914.0
2018-Jul-08 08:40N 35°47' W 122°29'9214.0
2018-Jul-08 02:06N 37°18' W 122°43'110.9
2018-Jul-08 01:59N 37°19' W 122°44'6 9.4
2018-Jul-08 01:19N 37°26' W 122°44'3 9.6
2018-Jul-08 01:00N 37°29' W 122°44'5 9.4
2018-Jul-08 00:30N 37°33' W 122°44'5 9.5
2018-Jul-08 00:00N 37°38' W 122°44'6 9.3
2018-Jul-07 23:23N 37°43' W 122°40'4 9.3
2018-Jul-07 22:58N 37°46' W 122°37'613.7
2018-Jul-07 22:30N 37°49' W 122°30'510.9
2018-Jul-07 22:00N 37°48' W 122°23'3 7.0
2018-Jul-07 21:30N 37°45' W 122°22'0 0.0
2018-Jul-07 21:00N 37°45' W 122°22'0 0.0
2018-Jul-07 20:30N 37°45' W 122°22'0 0.0
2018-Jul-07 20:00N 37°45' W 122°22'0 0.0
2018-Jul-07 19:30N 37°45' W 122°22'0 0.0
2018-Jul-07 19:00N 37°45' W 122°22'0 0.0
2018-Jul-07 18:30N 37°45' W 122°22'0 0.0
2018-Jul-07 18:00N 37°45' W 122°22'0 0.0
2018-Jul-07 17:30N 37°45' W 122°22'0 0.0
2018-Jul-07 17:00N 37°45' W 122°22'0 0.0
2018-Jul-07 16:30N 37°45' W 122°22'0 0.0
2018-Jul-07 16:00N 37°45' W 122°22'0 0.0
2018-Jul-07 15:30N 37°45' W 122°22'0 0.0
2018-Jul-07 15:00N 37°45' W 122°22'0 0.0
2018-Jul-07 14:30N 37°45' W 122°22'0 0.0
2018-Jul-07 14:00N 37°45' W 122°22'0 0.0
2018-Jul-07 13:30N 37°45' W 122°22'0 0.0
2018-Jul-07 13:00N 37°45' W 122°22'0 0.0
2018-Jul-07 12:30N 37°45' W 122°22'0 0.0
2018-Jul-07 12:00N 37°45' W 122°22'0 0.0
2018-Jul-07 11:30N 37°45' W 122°22'0 0.0
2018-Jul-07 11:00N 37°45' W 122°22'0 0.0
2018-Jul-07 10:30N 37°45' W 122°22'0 0.0
2018-Jul-07 10:00N 37°45' W 122°22'0 0.0
2018-Jul-07 09:30N 37°45' W 122°22'0 0.0
2018-Jul-07 09:00N 37°45' W 122°22'0 0.0
2018-Jul-07 08:30N 37°45' W 122°22'0 0.0
2018-Jul-07 08:00N 37°45' W 122°22'0 0.0
2018-Jul-07 07:30N 37°45' W 122°22'0 0.0
2018-Jul-07 07:00N 37°45' W 122°22'0 0.0
2018-Jul-07 06:30N 37°45' W 122°22'0 0.0
2018-Jul-07 06:00N 37°45' W 122°22'0 0.0
2018-Jul-07 05:30N 37°45' W 122°22'0 0.0
2018-Jul-07 05:00N 37°45' W 122°22'0 0.0
2018-Jul-07 04:30N 37°45' W 122°22'0 0.0
2018-Jul-07 04:00N 37°45' W 122°22'0 0.0
2018-Jul-07 03:30N 37°45' W 122°22'0 0.0
2018-Jul-07 03:00N 37°45' W 122°22'0 0.0
2018-Jul-07 02:30N 37°45' W 122°22'0 0.0
2018-Jul-07 02:00N 37°45' W 122°22'0 0.0
2018-Jul-07 01:30N 37°45' W 122°22'0 0.0
2018-Jul-07 01:00N 37°45' W 122°22'0 0.0
2018-Jul-07 00:30N 37°45' W 122°22'0 0.0
2018-Jul-07 00:00N 37°45' W 122°22'0 0.0
2018-Jul-06 23:30N 37°45' W 122°22'0 0.0
2018-Jul-06 23:00N 37°45' W 122°22'0 0.0
2018-Jul-06 22:30N 37°45' W 122°22'1 2.6
2018-Jul-06 22:00N 37°44' W 122°21'2 3.1
2018-Jul-06 21:30N 37°45' W 122°21'0 0.1
2018-Jul-06 20:58N 37°45' W 122°21'0 0.4
2018-Jul-06 20:30N 37°46' W 122°21'0 0.1
2018-Jul-06 19:57N 37°46' W 122°21'0 0.1
2018-Jul-06 19:30N 37°46' W 122°21'0 0.0
2018-Jul-06 18:59N 37°46' W 122°21'0 0.0
2018-Jul-06 18:30N 37°46' W 122°21'0 0.0
2018-Jul-06 18:00N 37°46' W 122°21'0 0.0
2018-Jul-06 17:30N 37°46' W 122°21'0 0.0
2018-Jul-06 17:00N 37°46' W 122°21'0 0.0
2018-Jul-06 16:27N 37°46' W 122°21'0 0.0
2018-Jul-06 15:52N 37°46' W 122°21'0 0.0
2018-Jul-06 15:29N 37°46' W 122°21'0 0.0
2018-Jul-06 14:56N 37°46' W 122°21'0 0.4
2018-Jul-06 14:30N 37°46' W 122°21'0 0.2
2018-Jul-06 14:00N 37°45' W 122°21'0 0.1
2018-Jul-06 13:30N 37°45' W 122°21'0 0.0
2018-Jul-06 13:00N 37°45' W 122°21'0 0.0
2018-Jul-06 12:30N 37°45' W 122°21'0 0.1
2018-Jul-06 12:00N 37°45' W 122°21'0 0.1
2018-Jul-06 11:30N 37°45' W 122°21'0 0.0
2018-Jul-06 11:00N 37°45' W 122°21'0 0.1
2018-Jul-06 10:30N 37°45' W 122°21'0 0.1
2018-Jul-06 10:00N 37°45' W 122°21'0 0.0
2018-Jul-06 09:31N 37°45' W 122°21'0 0.1
2018-Jul-06 09:00N 37°45' W 122°21'0 0.3
2018-Jul-06 08:30N 37°46' W 122°21'0 0.2
2018-Jul-06 08:00N 37°46' W 122°21'0 0.0
2018-Jul-06 07:30N 37°46' W 122°21'0 0.1
2018-Jul-06 06:59N 37°46' W 122°21'0 0.0
2018-Jul-06 06:24N 37°46' W 122°21'0 0.0
2018-Jul-06 05:58N 37°46' W 122°21'0 0.0
2018-Jul-06 05:30N 37°46' W 122°21'0 0.0
2018-Jul-06 04:58N 37°46' W 122°21'0 0.0
2018-Jul-06 04:30N 37°46' W 122°21'0 0.0
2018-Jul-06 04:00N 37°46' W 122°21'0 0.1
2018-Jul-06 03:30N 37°46' W 122°21'0 0.2
2018-Jul-06 03:00N 37°46' W 122°21'0 0.0
2018-Jul-06 02:30N 37°46' W 122°21'0 0.2
2018-Jul-06 02:00N 37°46' W 122°21'0 0.1
2018-Jul-06 01:30N 37°45' W 122°21'0 0.0
2018-Jul-06 01:00N 37°45' W 122°21'0 0.4
2018-Jul-06 00:30N 37°46' W 122°21'3 5.1
2018-Jul-06 00:00N 37°48' W 122°22'5 9.9
2018-Jul-05 23:30N 37°49' W 122°28'815.1
2018-Jul-05 23:00N 37°46' W 122°37'11 9.4
2018-Jul-05 21:52N 37°48' W 122°51'3 8.8
2018-Jul-05 21:30N 37°50' W 122°54'4 8.4
2018-Jul-05 21:00N 37°52' W 122°59'4 8.3
2018-Jul-05 20:30N 37°54' W 123°03'4 8.6
2018-Jul-05 20:00N 37°56' W 123°08'6 8.2
2018-Jul-05 19:15N 38°00' W 123°14'2 7.8
2018-Jul-05 19:00N 38°02' W 123°15'4 8.4
2018-Jul-05 18:31N 38°05' W 123°19'4 8.3
2018-Jul-05 18:00N 38°08' W 123°22'611.4
2018-Jul-05 17:30N 38°13' W 123°26'4 8.5
2018-Jul-05 17:01N 38°16' W 123°29'612.4
2018-Jul-05 16:30N 38°21' W 123°34'713.1
2018-Jul-05 16:00N 38°26' W 123°39'  
2018-Jul-01 18:54N 50°56' W 128°15'510.2
2018-Jul-01 18:27N 50°54' W 128°22'  
Track history (hours):
 
Tides and Currents Weather Stations Pressure Air Temp Water Temp Dewpoint Dewpoint Depression Visibility Wind Speed Wind Dir Waves Ship Positions

Sheila Ann

Last reported at 2018-Jul-09 11:57 UTC. Time now 2018-Jul-16 23:56 UTC.
Position N 30°25' W 118°44'.

Length 225 m; draft 8.4 m.

Type: Cargo ship. MMSI: 308717000.

Date/timePositionNaut miles runAvg speedWind from/ knotsBaromVisibWave heightAir tempDewpointWater temp
2018-Jul-09 11:57N 30°25' W 118°44'713.7
2018-Jul-09 11:28N 30°29' W 118°50'1214.0
2018-Jul-09 10:35N 30°38' W 118°60'113.8
2018-Jul-09 10:30N 30°39' W 119°01'714.2
2018-Jul-09 10:01N 30°44' W 119°07'714.0
2018-Jul-09 09:30N 30°49' W 119°13'1114.0
2018-Jul-09 08:41N 30°57' W 119°22'1713.9
2018-Jul-09 07:26N 31°10' W 119°35'614.0
2018-Jul-09 07:00N 31°15' W 119°39'714.1
2018-Jul-09 06:29N 31°20' W 119°45'713.9
2018-Jul-09 05:58N 31°26' W 119°50'613.6
2018-Jul-09 05:30N 31°31' W 119°55'713.5
2018-Jul-09 05:00N 31°36' W 119°59'714.0
2018-Jul-09 04:31N 31°42' W 120°04'713.9
2018-Jul-09 04:00N 31°47' W 120°09'713.8
2018-Jul-09 03:31N 31°53' W 120°14'714.2
2018-Jul-09 03:00N 31°58' W 120°20'713.9
2018-Jul-09 02:31N 32°04' W 120°25'714.1
2018-Jul-09 02:01N 32°09' W 120°30'714.2
2018-Jul-09 01:30N 32°15' W 120°35'714.0
2018-Jul-09 01:01N 32°20' W 120°40'6414.2
2018-Jul-08 20:28N 33°15' W 121°21'714.6
2018-Jul-08 20:00N 33°21' W 121°24'714.5
2018-Jul-08 19:30N 33°28' W 121°27'714.4
2018-Jul-08 19:01N 33°35' W 121°30'714.5
2018-Jul-08 18:30N 33°41' W 121°33'714.4
2018-Jul-08 18:01N 33°48' W 121°36'714.1
2018-Jul-08 17:30N 33°55' W 121°40'714.0
2018-Jul-08 17:00N 34°01' W 121°43'1014.0
2018-Jul-08 16:19N 34°10' W 121°47'813.9
2018-Jul-08 15:46N 34°17' W 121°51'813.6
2018-Jul-08 15:09N 34°25' W 121°54'313.6
2018-Jul-08 14:57N 34°27' W 121°56'613.5
2018-Jul-08 14:29N 34°33' W 121°58'613.3
2018-Jul-08 14:00N 34°39' W 122°01'813.1
2018-Jul-08 13:24N 34°47' W 122°05'3013.3
2018-Jul-08 11:10N 35°14' W 122°18'213.3
2018-Jul-08 11:00N 35°16' W 122°18'713.4
2018-Jul-08 10:29N 35°23' W 122°22'1013.4
2018-Jul-08 09:43N 35°32' W 122°26'513.6
2018-Jul-08 09:19N 35°38' W 122°27'914.0
2018-Jul-08 08:40N 35°47' W 122°29'9214.0
2018-Jul-08 02:06N 37°18' W 122°43'110.9
2018-Jul-08 01:59N 37°19' W 122°44'6 9.4
2018-Jul-08 01:19N 37°26' W 122°44'3 9.6
2018-Jul-08 01:00N 37°29' W 122°44'5 9.4
2018-Jul-08 00:30N 37°33' W 122°44'5 9.5
2018-Jul-08 00:00N 37°38' W 122°44'6 9.3
2018-Jul-07 23:23N 37°43' W 122°40'4 9.3
2018-Jul-07 22:58N 37°46' W 122°37'613.7
2018-Jul-07 22:30N 37°49' W 122°30'510.9
2018-Jul-07 22:00N 37°48' W 122°23'3 7.0
2018-Jul-07 21:30N 37°45' W 122°22'0 0.0
2018-Jul-07 21:00N 37°45' W 122°22'0 0.0
2018-Jul-07 20:30N 37°45' W 122°22'0 0.0
2018-Jul-07 20:00N 37°45' W 122°22'0 0.0
2018-Jul-07 19:30N 37°45' W 122°22'0 0.0
2018-Jul-07 19:00N 37°45' W 122°22'0 0.0
2018-Jul-07 18:30N 37°45' W 122°22'0 0.0
2018-Jul-07 18:00N 37°45' W 122°22'0 0.0
2018-Jul-07 17:30N 37°45' W 122°22'0 0.0
2018-Jul-07 17:00N 37°45' W 122°22'0 0.0
2018-Jul-07 16:30N 37°45' W 122°22'0 0.0
2018-Jul-07 16:00N 37°45' W 122°22'0 0.0
2018-Jul-07 15:30N 37°45' W 122°22'0 0.0
2018-Jul-07 15:00N 37°45' W 122°22'0 0.0
2018-Jul-07 14:30N 37°45' W 122°22'0 0.0
2018-Jul-07 14:00N 37°45' W 122°22'0 0.0
2018-Jul-07 13:30N 37°45' W 122°22'0 0.0
2018-Jul-07 13:00N 37°45' W 122°22'0 0.0
2018-Jul-07 12:30N 37°45' W 122°22'0 0.0
2018-Jul-07 12:00N 37°45' W 122°22'0 0.0
2018-Jul-07 11:30N 37°45' W 122°22'0 0.0
2018-Jul-07 11:00N 37°45' W 122°22'0 0.0
2018-Jul-07 10:30N 37°45' W 122°22'0 0.0
2018-Jul-07 10:00N 37°45' W 122°22'0 0.0
2018-Jul-07 09:30N 37°45' W 122°22'0 0.0
2018-Jul-07 09:00N 37°45' W 122°22'0 0.0
2018-Jul-07 08:30N 37°45' W 122°22'0 0.0
2018-Jul-07 08:00N 37°45' W 122°22'0 0.0
2018-Jul-07 07:30N 37°45' W 122°22'0 0.0
2018-Jul-07 07:00N 37°45' W 122°22'0 0.0
2018-Jul-07 06:30N 37°45' W 122°22'0 0.0
2018-Jul-07 06:00N 37°45' W 122°22'0 0.0
2018-Jul-07 05:30N 37°45' W 122°22'0 0.0
2018-Jul-07 05:00N 37°45' W 122°22'0 0.0
2018-Jul-07 04:30N 37°45' W 122°22'0 0.0
2018-Jul-07 04:00N 37°45' W 122°22'0 0.0
2018-Jul-07 03:30N 37°45' W 122°22'0 0.0
2018-Jul-07 03:00N 37°45' W 122°22'0 0.0
2018-Jul-07 02:30N 37°45' W 122°22'0 0.0
2018-Jul-07 02:00N 37°45' W 122°22'0 0.0
2018-Jul-07 01:30N 37°45' W 122°22'0 0.0
2018-Jul-07 01:00N 37°45' W 122°22'0 0.0
2018-Jul-07 00:30N 37°45' W 122°22'0 0.0
2018-Jul-07 00:00N 37°45' W 122°22'0 0.0
2018-Jul-06 23:30N 37°45' W 122°22'0 0.0
2018-Jul-06 23:00N 37°45' W 122°22'0 0.0
2018-Jul-06 22:30N 37°45' W 122°22'1 2.6
2018-Jul-06 22:00N 37°44' W 122°21'2 3.1
2018-Jul-06 21:30N 37°45' W 122°21'0 0.1
2018-Jul-06 20:58N 37°45' W 122°21'0 0.4
2018-Jul-06 20:30N 37°46' W 122°21'0 0.1
2018-Jul-06 19:57N 37°46' W 122°21'0 0.1
2018-Jul-06 19:30N 37°46' W 122°21'0 0.0
2018-Jul-06 18:59N 37°46' W 122°21'0 0.0
2018-Jul-06 18:30N 37°46' W 122°21'0 0.0
2018-Jul-06 18:00N 37°46' W 122°21'0 0.0
2018-Jul-06 17:30N 37°46' W 122°21'0 0.0
2018-Jul-06 17:00N 37°46' W 122°21'0 0.0
2018-Jul-06 16:27N 37°46' W 122°21'0 0.0
2018-Jul-06 15:52N 37°46' W 122°21'0 0.0
2018-Jul-06 15:29N 37°46' W 122°21'0 0.0
2018-Jul-06 14:56N 37°46' W 122°21'0 0.4
2018-Jul-06 14:30N 37°46' W 122°21'0 0.2
2018-Jul-06 14:00N 37°45' W 122°21'0 0.1
2018-Jul-06 13:30N 37°45' W 122°21'0 0.0
2018-Jul-06 13:00N 37°45' W 122°21'0 0.0
2018-Jul-06 12:30N 37°45' W 122°21'0 0.1
2018-Jul-06 12:00N 37°45' W 122°21'0 0.1
2018-Jul-06 11:30N 37°45' W 122°21'0 0.0
2018-Jul-06 11:00N 37°45' W 122°21'0 0.1
2018-Jul-06 10:30N 37°45' W 122°21'0 0.1
2018-Jul-06 10:00N 37°45' W 122°21'0 0.0
2018-Jul-06 09:31N 37°45' W 122°21'0 0.1
2018-Jul-06 09:00N 37°45' W 122°21'0 0.3
2018-Jul-06 08:30N 37°46' W 122°21'0 0.2
2018-Jul-06 08:00N 37°46' W 122°21'0 0.0
2018-Jul-06 07:30N 37°46' W 122°21'0 0.1
2018-Jul-06 06:59N 37°46' W 122°21'0 0.0
2018-Jul-06 06:24N 37°46' W 122°21'0 0.0
2018-Jul-06 05:58N 37°46' W 122°21'0 0.0
2018-Jul-06 05:30N 37°46' W 122°21'0 0.0
2018-Jul-06 04:58N 37°46' W 122°21'0 0.0
2018-Jul-06 04:30N 37°46' W 122°21'0 0.0
2018-Jul-06 04:00N 37°46' W 122°21'0 0.1
2018-Jul-06 03:30N 37°46' W 122°21'0 0.2
2018-Jul-06 03:00N 37°46' W 122°21'0 0.0
2018-Jul-06 02:30N 37°46' W 122°21'0 0.2
2018-Jul-06 02:00N 37°46' W 122°21'0 0.1
2018-Jul-06 01:30N 37°45' W 122°21'0 0.0
2018-Jul-06 01:00N 37°45' W 122°21'0 0.4
2018-Jul-06 00:30N 37°46' W 122°21'3 5.1
2018-Jul-06 00:00N 37°48' W 122°22'5 9.9
2018-Jul-05 23:30N 37°49' W 122°28'815.1
2018-Jul-05 23:00N 37°46' W 122°37'11 9.4
2018-Jul-05 21:52N 37°48' W 122°51'3 8.8
2018-Jul-05 21:30N 37°50' W 122°54'4 8.4
2018-Jul-05 21:00N 37°52' W 122°59'4 8.3
2018-Jul-05 20:30N 37°54' W 123°03'4 8.6
2018-Jul-05 20:00N 37°56' W 123°08'6 8.2
2018-Jul-05 19:15N 38°00' W 123°14'2 7.8
2018-Jul-05 19:00N 38°02' W 123°15'4 8.4
2018-Jul-05 18:31N 38°05' W 123°19'4 8.3
2018-Jul-05 18:00N 38°08' W 123°22'611.4
2018-Jul-05 17:30N 38°13' W 123°26'4 8.5
2018-Jul-05 17:01N 38°16' W 123°29'612.4
2018-Jul-05 16:30N 38°21' W 123°34'713.1
2018-Jul-05 16:00N 38°26' W 123°39'  
2018-Jul-01 18:54N 50°56' W 128°15'510.2
2018-Jul-01 18:27N 50°54' W 128°22'  

Dump ship's entire track history